sensor_id;sensor_type;location;lat;lon;timestamp;pressure;altitude;pressure_sealevel;temperature;humidity
30339;BME280;795;49.296;11.348;2023-04-27T00:01:42;96463.72;;;3.19;100.00
30339;BME280;795;49.296;11.348;2023-04-27T00:04:09;96474.91;;;3.22;100.00
30339;BME280;795;49.296;11.348;2023-04-27T00:06:36;96460.91;;;3.20;100.00
30339;BME280;795;49.296;11.348;2023-04-27T00:09:03;96464.06;;;3.25;100.00
30339;BME280;795;49.296;11.348;2023-04-27T00:11:30;96459.94;;;3.32;100.00
30339;BME280;795;49.296;11.348;2023-04-27T00:13:57;96473.19;;;3.44;100.00
30339;BME280;795;49.296;11.348;2023-04-27T00:16:25;96462.69;;;3.42;100.00
30339;BME280;795;49.296;11.348;2023-04-27T00:18:52;96405.13;;;3.11;100.00
30339;BME280;795;49.296;11.348;2023-04-27T00:21:19;96452.91;;;3.43;100.00
30339;BME280;795;49.296;11.348;2023-04-27T00:23:46;96464.00;;;3.48;100.00
30339;BME280;795;49.296;11.348;2023-04-27T00:26:13;96419.66;;;3.27;100.00
30339;BME280;795;49.296;11.348;2023-04-27T00:28:40;96457.84;;;3.47;100.00
30339;BME280;795;49.296;11.348;2023-04-27T00:31:07;96454.00;;;3.40;100.00
30339;BME280;795;49.296;11.348;2023-04-27T00:33:34;96450.97;;;3.56;100.00
30339;BME280;795;49.296;11.348;2023-04-27T00:36:01;96453.47;;;3.57;100.00
30339;BME280;795;49.296;11.348;2023-04-27T00:38:29;96361.97;;;3.09;100.00
30339;BME280;795;49.296;11.348;2023-04-27T00:41:05;96457.69;;;3.60;100.00
30339;BME280;795;49.296;11.348;2023-04-27T00:43:42;96455.97;;;3.70;100.00
30339;BME280;795;49.296;11.348;2023-04-27T00:46:12;96456.22;;;3.67;100.00
30339;BME280;795;49.296;11.348;2023-04-27T00:48:40;96446.13;;;3.61;100.00
30339;BME280;795;49.296;11.348;2023-04-27T00:51:07;96443.47;;;3.61;100.00
30339;BME280;795;49.296;11.348;2023-04-27T00:53:36;96447.88;;;3.71;100.00
30339;BME280;795;49.296;11.348;2023-04-27T00:56:06;96385.16;;;3.39;100.00
30339;BME280;795;49.296;11.348;2023-04-27T00:58:33;96371.97;;;3.16;100.00
30339;BME280;795;49.296;11.348;2023-04-27T01:01:00;96408.75;;;3.53;100.00
30339;BME280;795;49.296;11.348;2023-04-27T01:03:28;96432.63;;;3.53;100.00
30339;BME280;795;49.296;11.348;2023-04-27T01:05:56;96449.28;;;3.55;100.00
30339;BME280;795;49.296;11.348;2023-04-27T01:08:24;96438.19;;;3.50;100.00
30339;BME280;795;49.296;11.348;2023-04-27T01:10:51;96456.44;;;3.32;100.00
30339;BME280;795;49.296;11.348;2023-04-27T01:13:18;96437.75;;;3.33;100.00
30339;BME280;795;49.296;11.348;2023-04-27T01:15:46;96449.09;;;3.35;100.00
30339;BME280;795;49.296;11.348;2023-04-27T01:18:13;96443.41;;;3.40;100.00
30339;BME280;795;49.296;11.348;2023-04-27T01:20:40;96378.03;;;2.96;100.00
30339;BME280;795;49.296;11.348;2023-04-27T01:23:14;96360.81;;;2.80;100.00
30339;BME280;795;49.296;11.348;2023-04-27T01:25:43;96356.13;;;2.72;100.00
30339;BME280;795;49.296;11.348;2023-04-27T01:28:10;96447.19;;;3.26;100.00
30339;BME280;795;49.296;11.348;2023-04-27T01:30:37;96428.50;;;3.17;100.00
30339;BME280;795;49.296;11.348;2023-04-27T01:33:04;96437.03;;;3.20;100.00
30339;BME280;795;49.296;11.348;2023-04-27T01:35:46;96449.22;;;3.23;100.00
30339;BME280;795;49.296;11.348;2023-04-27T01:38:13;96424.28;;;3.03;100.00
30339;BME280;795;49.296;11.348;2023-04-27T01:40:39;96393.47;;;2.91;100.00
30339;BME280;795;49.296;11.348;2023-04-27T01:43:06;96441.44;;;2.99;100.00
30339;BME280;795;49.296;11.348;2023-04-27T01:45:33;96448.19;;;2.92;100.00
30339;BME280;795;49.296;11.348;2023-04-27T01:48:00;96439.25;;;3.04;100.00
30339;BME280;795;49.296;11.348;2023-04-27T01:50:27;96449.25;;;3.01;100.00
30339;BME280;795;49.296;11.348;2023-04-27T01:52:54;96450.13;;;2.90;100.00
30339;BME280;795;49.296;11.348;2023-04-27T01:55:21;96451.56;;;2.83;100.00
30339;BME280;795;49.296;11.348;2023-04-27T01:57:48;96334.00;;;2.07;100.00
30339;BME280;795;49.296;11.348;2023-04-27T02:00:15;96454.31;;;2.82;100.00
30339;BME280;795;49.296;11.348;2023-04-27T02:02:43;96434.31;;;2.55;100.00
30339;BME280;795;49.296;11.348;2023-04-27T02:05:11;96456.00;;;2.60;100.00
30339;BME280;795;49.296;11.348;2023-04-27T02:07:38;96369.13;;;1.97;100.00
30339;BME280;795;49.296;11.348;2023-04-27T02:10:05;96445.59;;;2.35;100.00
30339;BME280;795;49.296;11.348;2023-04-27T02:12:33;96447.19;;;2.27;100.00
30339;BME280;795;49.296;11.348;2023-04-27T02:15:00;96365.44;;;1.65;100.00
30339;BME280;795;49.296;11.348;2023-04-27T02:17:26;96458.22;;;2.21;100.00
30339;BME280;795;49.296;11.348;2023-04-27T02:19:54;96458.06;;;2.11;100.00
30339;BME280;795;49.296;11.348;2023-04-27T02:22:21;96450.13;;;2.00;100.00
30339;BME280;795;49.296;11.348;2023-04-27T02:24:49;96442.53;;;1.95;100.00
30339;BME280;795;49.296;11.348;2023-04-27T02:27:16;96333.66;;;1.19;100.00
30339;BME280;795;49.296;11.348;2023-04-27T02:29:43;96450.34;;;1.97;100.00
30339;BME280;795;49.296;11.348;2023-04-27T02:32:10;96458.41;;;1.95;100.00
30339;BME280;795;49.296;11.348;2023-04-27T02:34:37;96462.69;;;1.85;100.00
30339;BME280;795;49.296;11.348;2023-04-27T02:37:04;96460.19;;;1.84;100.00
30339;BME280;795;49.296;11.348;2023-04-27T02:39:31;96463.91;;;1.81;100.00
30339;BME280;795;49.296;11.348;2023-04-27T02:41:58;96339.69;;;0.98;100.00
30339;BME280;795;49.296;11.348;2023-04-27T02:44:25;96456.63;;;1.72;100.00
30339;BME280;795;49.296;11.348;2023-04-27T02:46:52;96383.72;;;1.10;100.00
30339;BME280;795;49.296;11.348;2023-04-27T02:49:19;96467.84;;;1.52;100.00
30339;BME280;795;49.296;11.348;2023-04-27T02:51:46;96467.94;;;1.51;100.00
30339;BME280;795;49.296;11.348;2023-04-27T02:54:13;96451.75;;;1.31;100.00
30339;BME280;795;49.296;11.348;2023-04-27T02:56:40;96438.97;;;1.25;100.00
30339;BME280;795;49.296;11.348;2023-04-27T02:59:07;96464.44;;;1.26;100.00
30339;BME280;795;49.296;11.348;2023-04-27T03:01:34;96474.31;;;1.24;100.00
30339;BME280;795;49.296;11.348;2023-04-27T03:04:01;96481.31;;;1.13;100.00
30339;BME280;795;49.296;11.348;2023-04-27T03:06:28;96477.50;;;1.17;100.00
30339;BME280;795;49.296;11.348;2023-04-27T03:08:55;96466.84;;;1.06;100.00
30339;BME280;795;49.296;11.348;2023-04-27T03:11:22;96454.13;;;0.87;100.00
30339;BME280;795;49.296;11.348;2023-04-27T03:13:49;96466.03;;;0.93;100.00
30339;BME280;795;49.296;11.348;2023-04-27T03:16:16;96467.41;;;0.98;100.00
30339;BME280;795;49.296;11.348;2023-04-27T03:18:43;96477.78;;;0.89;100.00
30339;BME280;795;49.296;11.348;2023-04-27T03:21:12;96396.81;;;0.39;100.00
30339;BME280;795;49.296;11.348;2023-04-27T03:23:39;96471.78;;;0.87;100.00
30339;BME280;795;49.296;11.348;2023-04-27T03:26:09;96389.75;;;0.27;100.00
30339;BME280;795;49.296;11.348;2023-04-27T03:28:38;96378.25;;;0.15;100.00
30339;BME280;795;49.296;11.348;2023-04-27T03:31:11;96486.44;;;0.91;100.00
30339;BME280;795;49.296;11.348;2023-04-27T03:33:39;96480.94;;;0.94;100.00
30339;BME280;795;49.296;11.348;2023-04-27T03:36:08;96388.78;;;0.40;100.00
30339;BME280;795;49.296;11.348;2023-04-27T03:38:36;96500.91;;;1.10;100.00
30339;BME280;795;49.296;11.348;2023-04-27T03:41:04;96383.06;;;0.46;100.00
30339;BME280;795;49.296;11.348;2023-04-27T03:43:31;96498.75;;;1.15;100.00
30339;BME280;795;49.296;11.348;2023-04-27T03:45:58;96470.25;;;0.95;100.00
30339;BME280;795;49.296;11.348;2023-04-27T03:48:25;96495.56;;;1.23;100.00
30339;BME280;795;49.296;11.348;2023-04-27T03:50:51;96498.13;;;1.12;100.00
30339;BME280;795;49.296;11.348;2023-04-27T03:53:18;96496.69;;;1.31;100.00
30339;BME280;795;49.296;11.348;2023-04-27T03:55:45;96500.72;;;1.37;100.00
30339;BME280;795;49.296;11.348;2023-04-27T03:58:13;96503.78;;;1.31;100.00
30339;BME280;795;49.296;11.348;2023-04-27T04:00:40;96492.28;;;1.19;100.00
30339;BME280;795;49.296;11.348;2023-04-27T04:03:07;96503.25;;;1.26;100.00
30339;BME280;795;49.296;11.348;2023-04-27T04:05:34;96416.81;;;0.79;100.00
30339;BME280;795;49.296;11.348;2023-04-27T04:08:01;96518.50;;;1.35;100.00
30339;BME280;795;49.296;11.348;2023-04-27T04:10:29;96401.56;;;0.83;100.00
30339;BME280;795;49.296;11.348;2023-04-27T04:12:55;96524.75;;;1.58;100.00
30339;BME280;795;49.296;11.348;2023-04-27T04:15:22;96516.50;;;1.62;100.00
30339;BME280;795;49.296;11.348;2023-04-27T04:17:49;96513.19;;;1.71;100.00
30339;BME280;795;49.296;11.348;2023-04-27T04:20:17;96521.44;;;1.90;100.00
30339;BME280;795;49.296;11.348;2023-04-27T04:22:43;96526.03;;;1.99;100.00
30339;BME280;795;49.296;11.348;2023-04-27T04:25:10;96454.31;;;1.68;100.00
30339;BME280;795;49.296;11.348;2023-04-27T04:27:39;96512.53;;;2.15;100.00
30339;BME280;795;49.296;11.348;2023-04-27T04:30:07;96510.13;;;2.23;100.00
30339;BME280;795;49.296;11.348;2023-04-27T04:32:34;96507.59;;;2.22;100.00
30339;BME280;795;49.296;11.348;2023-04-27T04:35:06;96497.16;;;2.31;100.00
30339;BME280;795;49.296;11.348;2023-04-27T04:37:34;96502.00;;;2.48;100.00
30339;BME280;795;49.296;11.348;2023-04-27T04:40:07;96507.09;;;2.62;100.00
30339;BME280;795;49.296;11.348;2023-04-27T04:42:37;96505.66;;;2.69;100.00
30339;BME280;795;49.296;11.348;2023-04-27T04:45:05;96501.19;;;2.81;100.00
30339;BME280;795;49.296;11.348;2023-04-27T04:47:33;96449.00;;;2.59;100.00
30339;BME280;795;49.296;11.348;2023-04-27T04:50:00;96508.19;;;3.04;100.00
30339;BME280;795;49.296;11.348;2023-04-27T04:52:27;96464.34;;;2.78;100.00
30339;BME280;795;49.296;11.348;2023-04-27T04:54:54;96496.50;;;2.96;100.00
30339;BME280;795;49.296;11.348;2023-04-27T04:57:21;96514.09;;;3.19;100.00
30339;BME280;795;49.296;11.348;2023-04-27T04:59:48;96516.88;;;3.28;100.00
30339;BME280;795;49.296;11.348;2023-04-27T05:02:15;96510.81;;;3.38;100.00
30339;BME280;795;49.296;11.348;2023-04-27T05:04:42;96516.38;;;3.46;100.00
30339;BME280;795;49.296;11.348;2023-04-27T05:07:09;96500.44;;;3.46;100.00
30339;BME280;795;49.296;11.348;2023-04-27T05:09:40;96497.03;;;3.55;100.00
30339;BME280;795;49.296;11.348;2023-04-27T05:12:07;96508.47;;;3.77;100.00
30339;BME280;795;49.296;11.348;2023-04-27T05:14:34;96502.06;;;3.80;100.00
30339;BME280;795;49.296;11.348;2023-04-27T05:17:01;96470.75;;;3.83;100.00
30339;BME280;795;49.296;11.348;2023-04-27T05:19:30;96440.00;;;3.81;100.00
30339;BME280;795;49.296;11.348;2023-04-27T05:22:00;96510.81;;;4.44;100.00
30339;BME280;795;49.296;11.348;2023-04-27T05:24:26;96521.28;;;4.56;100.00
30339;BME280;795;49.296;11.348;2023-04-27T05:26:53;96518.72;;;4.76;100.00
30339;BME280;795;49.296;11.348;2023-04-27T05:29:21;96518.97;;;4.93;100.00
30339;BME280;795;49.296;11.348;2023-04-27T05:31:48;96516.25;;;5.14;100.00
30339;BME280;795;49.296;11.348;2023-04-27T05:34:16;96514.53;;;5.33;100.00
30339;BME280;795;49.296;11.348;2023-04-27T05:36:43;96516.88;;;5.67;100.00
30339;BME280;795;49.296;11.348;2023-04-27T05:39:10;96514.66;;;5.81;100.00
30339;BME280;795;49.296;11.348;2023-04-27T05:41:38;96413.66;;;5.30;100.00
30339;BME280;795;49.296;11.348;2023-04-27T05:44:05;96489.06;;;5.90;100.00
30339;BME280;795;49.296;11.348;2023-04-27T05:46:32;96423.81;;;5.65;100.00
30339;BME280;795;49.296;11.348;2023-04-27T05:49:01;96529.06;;;6.38;100.00
30339;BME280;795;49.296;11.348;2023-04-27T05:51:28;96465.09;;;6.09;100.00
30339;BME280;795;49.296;11.348;2023-04-27T05:53:55;96526.38;;;6.66;100.00
30339;BME280;795;49.296;11.348;2023-04-27T05:56:22;96519.91;;;6.79;100.00
30339;BME280;795;49.296;11.348;2023-04-27T05:58:49;96531.13;;;6.92;100.00
30339;BME280;795;49.296;11.348;2023-04-27T06:01:16;96511.81;;;7.07;100.00
30339;BME280;795;49.296;11.348;2023-04-27T06:03:43;96527.25;;;7.23;100.00
30339;BME280;795;49.296;11.348;2023-04-27T06:06:10;96520.16;;;7.41;100.00
30339;BME280;795;49.296;11.348;2023-04-27T06:08:37;96540.69;;;7.68;100.00
30339;BME280;795;49.296;11.348;2023-04-27T06:11:05;96416.44;;;7.09;100.00
30339;BME280;795;49.296;11.348;2023-04-27T06:13:32;96471.13;;;7.32;100.00
30339;BME280;795;49.296;11.348;2023-04-27T06:16:00;96535.94;;;7.89;100.00
30339;BME280;795;49.296;11.348;2023-04-27T06:18:27;96526.88;;;7.99;100.00
30339;BME280;795;49.296;11.348;2023-04-27T06:20:59;96537.50;;;8.36;100.00
30339;BME280;795;49.296;11.348;2023-04-27T06:23:27;96528.78;;;8.52;100.00
30339;BME280;795;49.296;11.348;2023-04-27T06:25:54;96440.72;;;8.06;100.00
30339;BME280;795;49.296;11.348;2023-04-27T06:28:22;96550.50;;;9.10;99.56
30339;BME280;795;49.296;11.348;2023-04-27T06:30:49;96540.31;;;9.13;90.33
30339;BME280;795;49.296;11.348;2023-04-27T06:33:16;96562.19;;;9.26;87.17
30339;BME280;795;49.296;11.348;2023-04-27T06:35:44;96556.41;;;9.73;87.62
30339;BME280;795;49.296;11.348;2023-04-27T06:38:13;96526.03;;;9.56;86.17
30339;BME280;795;49.296;11.348;2023-04-27T06:40:40;96543.88;;;9.73;88.40
30339;BME280;795;49.296;11.348;2023-04-27T06:43:07;96549.66;;;9.61;94.13
30339;BME280;795;49.296;11.348;2023-04-27T06:45:34;96540.22;;;9.82;94.80
30339;BME280;795;49.296;11.348;2023-04-27T06:48:01;96546.13;;;9.94;90.50
30339;BME280;795;49.296;11.348;2023-04-27T06:50:28;96437.59;;;9.22;79.75
30339;BME280;795;49.296;11.348;2023-04-27T06:52:56;96449.97;;;9.57;70.06
30339;BME280;795;49.296;11.348;2023-04-27T06:55:23;96539.41;;;10.32;70.54
30339;BME280;795;49.296;11.348;2023-04-27T06:57:49;96538.75;;;10.54;69.38
30339;BME280;795;49.296;11.348;2023-04-27T07:00:17;96554.06;;;11.26;66.27
30339;BME280;795;49.296;11.348;2023-04-27T07:02:44;96562.06;;;11.58;63.36
30339;BME280;795;49.296;11.348;2023-04-27T07:05:11;96566.06;;;11.86;61.10
30339;BME280;795;49.296;11.348;2023-04-27T07:07:38;96565.41;;;11.60;57.70
30339;BME280;795;49.296;11.348;2023-04-27T07:10:06;96570.63;;;11.86;55.79
30339;BME280;795;49.296;11.348;2023-04-27T07:12:34;96557.22;;;11.70;56.26
30339;BME280;795;49.296;11.348;2023-04-27T07:15:00;96563.81;;;12.06;53.47
30339;BME280;795;49.296;11.348;2023-04-27T07:17:29;96546.38;;;11.94;53.23
30339;BME280;795;49.296;11.348;2023-04-27T07:19:56;96561.28;;;12.05;53.89
30339;BME280;795;49.296;11.348;2023-04-27T07:22:23;96485.28;;;11.56;54.37
30339;BME280;795;49.296;11.348;2023-04-27T07:24:50;96551.13;;;11.84;54.14
30339;BME280;795;49.296;11.348;2023-04-27T07:27:17;96550.19;;;11.45;52.77
30339;BME280;795;49.296;11.348;2023-04-27T07:29:44;96496.63;;;11.27;52.33
30339;BME280;795;49.296;11.348;2023-04-27T07:32:11;96548.06;;;11.87;53.39
30339;BME280;795;49.296;11.348;2023-04-27T07:34:38;96546.28;;;11.71;51.36
30339;BME280;795;49.296;11.348;2023-04-27T07:37:18;96557.97;;;11.94;50.09
30339;BME280;795;49.296;11.348;2023-04-27T07:39:48;96563.81;;;12.06;51.29
30339;BME280;795;49.296;11.348;2023-04-27T07:42:16;96471.44;;;11.20;50.75
30339;BME280;795;49.296;11.348;2023-04-27T07:44:44;96521.53;;;11.84;51.03
30339;BME280;795;49.296;11.348;2023-04-27T07:47:11;96573.72;;;12.44;50.06
30339;BME280;795;49.296;11.348;2023-04-27T07:49:39;96569.19;;;12.45;49.36
30339;BME280;795;49.296;11.348;2023-04-27T07:52:06;96577.44;;;12.97;49.20
30339;BME280;795;49.296;11.348;2023-04-27T07:54:34;96574.91;;;12.73;48.66
30339;BME280;795;49.296;11.348;2023-04-27T07:57:10;96554.91;;;12.90;49.16
30339;BME280;795;49.296;11.348;2023-04-27T07:59:39;96576.28;;;13.88;47.90
30339;BME280;795;49.296;11.348;2023-04-27T08:03:49;96587.00;;;14.26;46.90
30339;BME280;795;49.296;11.348;2023-04-27T08:06:18;96597.19;;;14.38;46.61
30339;BME280;795;49.296;11.348;2023-04-27T08:08:46;96597.72;;;14.19;46.28
30339;BME280;795;49.296;11.348;2023-04-27T08:11:13;96538.22;;;13.69;46.34
30339;BME280;795;49.296;11.348;2023-04-27T08:13:40;96561.13;;;14.82;46.49
30339;BME280;795;49.296;11.348;2023-04-27T08:16:07;96597.81;;;14.91;45.10
30339;BME280;795;49.296;11.348;2023-04-27T08:18:34;96600.78;;;14.60;44.45
30339;BME280;795;49.296;11.348;2023-04-27T08:21:00;96581.41;;;15.13;44.19
30339;BME280;795;49.296;11.348;2023-04-27T08:23:29;96596.97;;;14.90;44.74
30339;BME280;795;49.296;11.348;2023-04-27T08:25:58;96603.00;;;15.28;44.00
30339;BME280;795;49.296;11.348;2023-04-27T08:28:25;96602.78;;;15.29;41.74
30339;BME280;795;49.296;11.348;2023-04-27T08:30:52;96598.41;;;15.71;41.51
30339;BME280;795;49.296;11.348;2023-04-27T08:33:19;96593.63;;;16.01;40.83
30339;BME280;795;49.296;11.348;2023-04-27T08:35:46;96602.25;;;15.83;41.69
30339;BME280;795;49.296;11.348;2023-04-27T08:38:13;96590.88;;;16.69;39.61
30339;BME280;795;49.296;11.348;2023-04-27T08:40:43;96602.28;;;17.05;38.33
30339;BME280;795;49.296;11.348;2023-04-27T08:43:10;96587.97;;;16.30;39.63
30339;BME280;795;49.296;11.348;2023-04-27T08:45:47;96588.69;;;15.83;39.42
30339;BME280;795;49.296;11.348;2023-04-27T08:48:16;96554.09;;;16.47;38.66
30339;BME280;795;49.296;11.348;2023-04-27T08:50:45;96573.59;;;16.77;37.97
30339;BME280;795;49.296;11.348;2023-04-27T08:53:20;96593.72;;;17.02;37.90
30339;BME280;795;49.296;11.348;2023-04-27T08:55:51;96585.81;;;16.53;37.55
30339;BME280;795;49.296;11.348;2023-04-27T08:58:18;96581.13;;;16.40;37.94
30339;BME280;795;49.296;11.348;2023-04-27T09:00:45;96565.13;;;17.06;38.31
30339;BME280;795;49.296;11.348;2023-04-27T09:03:24;96590.34;;;16.93;38.85
30339;BME280;795;49.296;11.348;2023-04-27T09:05:51;96572.41;;;16.86;39.30
30339;BME280;795;49.296;11.348;2023-04-27T09:08:48;96578.13;;;17.17;38.27
30339;BME280;795;49.296;11.348;2023-04-27T09:11:34;96576.81;;;17.00;39.09
30339;BME280;795;49.296;11.348;2023-04-27T09:14:22;96579.16;;;17.22;39.00
30339;BME280;795;49.296;11.348;2023-04-27T09:16:55;96577.78;;;16.73;38.24
30339;BME280;795;49.296;11.348;2023-04-27T09:19:29;96585.22;;;17.31;38.88
30339;BME280;795;49.296;11.348;2023-04-27T09:22:22;96558.44;;;16.95;39.62
30339;BME280;795;49.296;11.348;2023-04-27T09:24:51;96580.03;;;17.36;37.96
30339;BME280;795;49.296;11.348;2023-04-27T09:27:21;96491.28;;;17.43;36.11
30339;BME280;795;49.296;11.348;2023-04-27T09:29:48;96524.28;;;17.40;36.53
30339;BME280;795;49.296;11.348;2023-04-27T09:32:18;96554.75;;;17.29;36.02
30339;BME280;795;49.296;11.348;2023-04-27T09:34:46;96532.03;;;17.69;34.54
30339;BME280;795;49.296;11.348;2023-04-27T09:37:14;96580.84;;;18.22;35.48
30339;BME280;795;49.296;11.348;2023-04-27T09:39:41;96561.53;;;19.38;34.41
30339;BME280;795;49.296;11.348;2023-04-27T09:42:11;96572.00;;;20.15;31.76
30339;BME280;795;49.296;11.348;2023-04-27T09:44:38;96551.66;;;19.44;33.56
30339;BME280;795;49.296;11.348;2023-04-27T09:47:06;96542.38;;;19.51;34.94
30339;BME280;795;49.296;11.348;2023-04-27T09:49:34;96469.59;;;19.34;33.12
30339;BME280;795;49.296;11.348;2023-04-27T09:52:01;96563.28;;;20.49;33.45
30339;BME280;795;49.296;11.348;2023-04-27T09:54:33;96531.88;;;20.95;31.39
30339;BME280;795;49.296;11.348;2023-04-27T09:57:47;96451.56;;;20.25;31.65
30339;BME280;795;49.296;11.348;2023-04-27T10:01:03;96548.16;;;21.72;30.76
30339;BME280;795;49.296;11.348;2023-04-27T10:04:23;96551.28;;;19.90;33.25
30339;BME280;795;49.296;11.348;2023-04-27T10:07:05;96554.28;;;18.30;35.16
30339;BME280;795;49.296;11.348;2023-04-27T10:10:01;96548.19;;;18.35;35.41
30339;BME280;795;49.296;11.348;2023-04-27T10:12:35;96549.50;;;18.83;33.90
30339;BME280;795;49.296;11.348;2023-04-27T10:15:16;96481.38;;;18.08;35.16
30339;BME280;795;49.296;11.348;2023-04-27T10:17:49;96516.50;;;16.85;37.18
30339;BME280;795;49.296;11.348;2023-04-27T10:20:34;96498.16;;;17.00;38.39
30339;BME280;795;49.296;11.348;2023-04-27T10:23:02;96538.03;;;18.04;36.25
30339;BME280;795;49.296;11.348;2023-04-27T10:25:39;96550.88;;;18.99;34.93
30339;BME280;795;49.296;11.348;2023-04-27T10:28:07;96540.03;;;20.29;33.25
30339;BME280;795;49.296;11.348;2023-04-27T10:30:37;96509.44;;;19.59;32.93
30339;BME280;795;49.296;11.348;2023-04-27T10:33:10;96531.03;;;20.76;32.95
30339;BME280;795;49.296;11.348;2023-04-27T10:35:42;96535.22;;;20.79;33.22
30339;BME280;795;49.296;11.348;2023-04-27T10:38:17;96535.78;;;19.90;32.33
30339;BME280;795;49.296;11.348;2023-04-27T10:40:54;96539.72;;;19.07;33.46
30339;BME280;795;49.296;11.348;2023-04-27T10:43:29;96534.22;;;19.20;32.89
30339;BME280;795;49.296;11.348;2023-04-27T10:46:14;96490.78;;;18.12;33.27
30339;BME280;795;49.296;11.348;2023-04-27T10:48:43;96522.34;;;18.13;33.63
30339;BME280;795;49.296;11.348;2023-04-27T10:51:15;96551.56;;;18.88;33.49
30339;BME280;795;49.296;11.348;2023-04-27T10:53:43;96532.97;;;19.72;32.47
30339;BME280;795;49.296;11.348;2023-04-27T10:56:10;96454.72;;;20.40;32.28
30339;BME280;795;49.296;11.348;2023-04-27T10:58:38;96474.63;;;21.06;31.23
30339;BME280;795;49.296;11.348;2023-04-27T11:01:25;96517.69;;;20.38;31.38
30339;BME280;795;49.296;11.348;2023-04-27T11:04:00;96535.31;;;20.54;31.34
30339;BME280;795;49.296;11.348;2023-04-27T11:06:29;96541.31;;;19.21;33.07
30339;BME280;795;49.296;11.348;2023-04-27T11:09:00;96484.09;;;20.20;32.33
30339;BME280;795;49.296;11.348;2023-04-27T11:11:27;96480.09;;;22.06;30.49
30339;BME280;795;49.296;11.348;2023-04-27T11:13:54;96523.19;;;23.58;27.71
30339;BME280;795;49.296;11.348;2023-04-27T11:16:22;96539.59;;;24.96;25.79
30339;BME280;795;49.296;11.348;2023-04-27T11:18:49;96552.69;;;26.54;24.89
30339;BME280;795;49.296;11.348;2023-04-27T11:21:18;96493.66;;;24.70;25.92
30339;BME280;795;49.296;11.348;2023-04-27T11:23:49;96539.56;;;25.66;25.34
30339;BME280;795;49.296;11.348;2023-04-27T11:26:20;96532.28;;;24.63;25.67
30339;BME280;795;49.296;11.348;2023-04-27T11:31:43;96533.31;;;25.76;25.06
30339;BME280;795;49.296;11.348;2023-04-27T11:34:23;96552.94;;;27.77;22.91
30339;BME280;795;49.296;11.348;2023-04-27T11:37:05;96542.38;;;26.81;23.78
30339;BME280;795;49.296;11.348;2023-04-27T11:39:44;96493.41;;;26.05;24.72
30339;BME280;795;49.296;11.348;2023-04-27T11:42:27;96539.03;;;24.94;26.12
30339;BME280;795;49.296;11.348;2023-04-27T11:45:03;96551.56;;;24.30;26.23
30339;BME280;795;49.296;11.348;2023-04-27T11:47:34;96489.94;;;23.38;26.85
30339;BME280;795;49.296;11.348;2023-04-27T11:50:05;96542.72;;;22.65;28.21
30339;BME280;795;49.296;11.348;2023-04-27T11:52:38;96546.53;;;22.41;28.87
30339;BME280;795;49.296;11.348;2023-04-27T11:55:08;96493.97;;;21.69;29.09
30339;BME280;795;49.296;11.348;2023-04-27T11:57:42;96482.97;;;20.64;30.04
30339;BME280;795;49.296;11.348;2023-04-27T12:00:09;96547.59;;;21.82;29.84
30339;BME280;795;49.296;11.348;2023-04-27T12:02:37;96547.66;;;20.57;30.87
30339;BME280;795;49.296;11.348;2023-04-27T12:05:05;96516.59;;;19.78;31.75
30339;BME280;795;49.296;11.348;2023-04-27T12:07:34;96544.78;;;19.91;31.19
30339;BME280;795;49.296;11.348;2023-04-27T12:10:01;96543.66;;;19.98;31.54
30339;BME280;795;49.296;11.348;2023-04-27T12:12:28;96546.91;;;19.64;31.72
30339;BME280;795;49.296;11.348;2023-04-27T12:14:55;96533.13;;;19.28;32.84
30339;BME280;795;49.296;11.348;2023-04-27T12:17:22;96531.84;;;19.86;31.96
30339;BME280;795;49.296;11.348;2023-04-27T12:19:49;96505.84;;;19.34;31.40
30339;BME280;795;49.296;11.348;2023-04-27T12:22:16;96530.22;;;19.78;31.17
30339;BME280;795;49.296;11.348;2023-04-27T12:24:43;96516.47;;;20.34;30.63
30339;BME280;795;49.296;11.348;2023-04-27T12:27:10;96478.56;;;20.63;30.23
30339;BME280;795;49.296;11.348;2023-04-27T12:29:37;96526.75;;;20.98;30.15
30339;BME280;795;49.296;11.348;2023-04-27T12:32:05;96531.19;;;20.99;30.48
30339;BME280;795;49.296;11.348;2023-04-27T12:34:32;96534.50;;;22.54;28.96
30339;BME280;795;49.296;11.348;2023-04-27T12:37:00;96534.91;;;23.25;28.19
30339;BME280;795;49.296;11.348;2023-04-27T12:39:27;96529.63;;;21.74;28.74
30339;BME280;795;49.296;11.348;2023-04-27T12:41:54;96497.41;;;20.82;30.09
30339;BME280;795;49.296;11.348;2023-04-27T12:44:21;96508.66;;;20.86;30.67
30339;BME280;795;49.296;11.348;2023-04-27T12:46:48;96524.09;;;20.80;31.13
30339;BME280;795;49.296;11.348;2023-04-27T12:49:16;96413.06;;;18.86;32.65
30339;BME280;795;49.296;11.348;2023-04-27T12:51:44;96520.31;;;18.97;33.44
30339;BME280;795;49.296;11.348;2023-04-27T12:54:13;96521.63;;;18.88;34.02
30339;BME280;795;49.296;11.348;2023-04-27T12:56:40;96466.91;;;19.02;33.24
30339;BME280;795;49.296;11.348;2023-04-27T12:59:08;96446.28;;;19.19;33.07
30339;BME280;795;49.296;11.348;2023-04-27T13:01:35;96488.06;;;18.69;34.47
30339;BME280;795;49.296;11.348;2023-04-27T13:04:05;96480.25;;;18.35;34.23
30339;BME280;795;49.296;11.348;2023-04-27T13:06:33;96517.72;;;19.15;34.02
30339;BME280;795;49.296;11.348;2023-04-27T13:09:00;96488.78;;;19.20;33.27
30339;BME280;795;49.296;11.348;2023-04-27T13:11:27;96502.41;;;19.14;33.95
30339;BME280;795;49.296;11.348;2023-04-27T13:13:53;96497.44;;;18.22;35.39
30339;BME280;795;49.296;11.348;2023-04-27T13:16:21;96468.75;;;17.36;36.08
30339;BME280;795;49.296;11.348;2023-04-27T13:18:48;96501.72;;;17.33;36.27
30339;BME280;795;49.296;11.348;2023-04-27T13:21:18;96507.13;;;17.85;36.03
30339;BME280;795;49.296;11.348;2023-04-27T13:23:45;96503.56;;;17.98;37.10
30339;BME280;795;49.296;11.348;2023-04-27T13:26:14;96513.97;;;18.21;35.82
30339;BME280;795;49.296;11.348;2023-04-27T13:28:42;96483.34;;;18.51;35.49